sensor_id;sensor_type;location;lat;lon;timestamp;P1;durP1;ratioP1;P2;durP2;ratioP2
63444;SDS011;49573;47.682;9.170;2023-07-13T00:02:19;9.40;;;5.05;;
63444;SDS011;49573;47.682;9.170;2023-07-13T00:05:05;5.57;;;4.53;;
63444;SDS011;49573;47.682;9.170;2023-07-13T00:07:52;7.38;;;4.78;;
63444;SDS011;49573;47.682;9.170;2023-07-13T00:10:39;6.13;;;4.18;;
63444;SDS011;49573;47.682;9.170;2023-07-13T00:13:26;9.13;;;4.50;;
63444;SDS011;49573;47.682;9.170;2023-07-13T00:16:13;8.00;;;4.82;;
63444;SDS011;49573;47.682;9.170;2023-07-13T00:19:01;9.65;;;4.57;;
63444;SDS011;49573;47.682;9.170;2023-07-13T00:21:47;9.25;;;5.38;;
63444;SDS011;49573;47.682;9.170;2023-07-13T00:24:33;9.77;;;4.72;;
63444;SDS011;49573;47.682;9.170;2023-07-13T00:27:21;6.38;;;4.43;;
63444;SDS011;49573;47.682;9.170;2023-07-13T00:30:08;6.05;;;3.70;;
63444;SDS011;49573;47.682;9.170;2023-07-13T00:35:42;8.20;;;4.38;;
63444;SDS011;49573;47.682;9.170;2023-07-13T00:38:29;6.80;;;4.28;;
63444;SDS011;49573;47.682;9.170;2023-07-13T00:41:15;8.60;;;4.55;;
63444;SDS011;49573;47.682;9.170;2023-07-13T00:44:01;6.68;;;4.05;;
63444;SDS011;49573;47.682;9.170;2023-07-13T00:46:48;7.28;;;4.50;;
63444;SDS011;49573;47.682;9.170;2023-07-13T00:49:34;6.35;;;4.15;;
63444;SDS011;49573;47.682;9.170;2023-07-13T00:52:23;6.22;;;4.22;;
63444;SDS011;49573;47.682;9.170;2023-07-13T00:55:09;8.90;;;4.60;;
63444;SDS011;49573;47.682;9.170;2023-07-13T00:57:58;7.60;;;5.10;;
63444;SDS011;49573;47.682;9.170;2023-07-13T01:00:45;7.32;;;4.10;;
63444;SDS011;49573;47.682;9.170;2023-07-13T01:03:32;6.63;;;4.05;;
63444;SDS011;49573;47.682;9.170;2023-07-13T01:06:20;7.50;;;4.53;;
63444;SDS011;49573;47.682;9.170;2023-07-13T01:09:08;7.25;;;4.68;;
63444;SDS011;49573;47.682;9.170;2023-07-13T01:11:55;6.45;;;4.25;;
63444;SDS011;49573;47.682;9.170;2023-07-13T01:14:41;6.68;;;4.32;;
63444;SDS011;49573;47.682;9.170;2023-07-13T01:17:28;7.20;;;4.90;;
63444;SDS011;49573;47.682;9.170;2023-07-13T01:23:02;7.00;;;4.25;;
63444;SDS011;49573;47.682;9.170;2023-07-13T01:25:48;7.50;;;4.10;;
63444;SDS011;49573;47.682;9.170;2023-07-13T01:28:34;6.20;;;4.22;;
63444;SDS011;49573;47.682;9.170;2023-07-13T01:31:22;8.40;;;4.57;;
63444;SDS011;49573;47.682;9.170;2023-07-13T01:34:08;6.65;;;4.25;;
63444;SDS011;49573;47.682;9.170;2023-07-13T01:36:55;6.40;;;4.80;;
63444;SDS011;49573;47.682;9.170;2023-07-13T01:39:42;8.32;;;4.78;;
63444;SDS011;49573;47.682;9.170;2023-07-13T01:42:28;7.18;;;4.40;;
63444;SDS011;49573;47.682;9.170;2023-07-13T01:45:15;7.43;;;4.40;;
63444;SDS011;49573;47.682;9.170;2023-07-13T01:48:01;6.82;;;3.97;;
63444;SDS011;49573;47.682;9.170;2023-07-13T01:53:34;11.27;;;4.63;;
63444;SDS011;49573;47.682;9.170;2023-07-13T01:56:22;6.10;;;3.97;;
63444;SDS011;49573;47.682;9.170;2023-07-13T01:59:08;5.63;;;4.07;;
63444;SDS011;49573;47.682;9.170;2023-07-13T02:01:55;6.00;;;4.10;;
63444;SDS011;49573;47.682;9.170;2023-07-13T02:04:41;6.65;;;4.28;;
63444;SDS011;49573;47.682;9.170;2023-07-13T02:07:27;5.90;;;4.20;;
63444;SDS011;49573;47.682;9.170;2023-07-13T02:10:13;5.97;;;3.83;;
63444;SDS011;49573;47.682;9.170;2023-07-13T02:13:00;7.28;;;3.92;;
63444;SDS011;49573;47.682;9.170;2023-07-13T02:15:49;8.57;;;4.25;;
63444;SDS011;49573;47.682;9.170;2023-07-13T02:18:35;5.28;;;3.92;;
63444;SDS011;49573;47.682;9.170;2023-07-13T02:21:23;5.47;;;4.25;;
63444;SDS011;49573;47.682;9.170;2023-07-13T02:24:09;7.38;;;4.78;;
63444;SDS011;49573;47.682;9.170;2023-07-13T02:26:55;6.90;;;4.10;;
63444;SDS011;49573;47.682;9.170;2023-07-13T02:29:43;7.95;;;4.60;;
63444;SDS011;49573;47.682;9.170;2023-07-13T02:32:29;6.68;;;4.30;;
63444;SDS011;49573;47.682;9.170;2023-07-13T02:35:15;5.70;;;4.38;;
63444;SDS011;49573;47.682;9.170;2023-07-13T02:38:01;6.25;;;4.05;;
63444;SDS011;49573;47.682;9.170;2023-07-13T02:40:47;8.07;;;4.53;;
63444;SDS011;49573;47.682;9.170;2023-07-13T02:43:33;7.60;;;4.17;;
63444;SDS011;49573;47.682;9.170;2023-07-13T02:46:21;6.10;;;3.72;;
63444;SDS011;49573;47.682;9.170;2023-07-13T02:49:09;5.57;;;3.70;;
63444;SDS011;49573;47.682;9.170;2023-07-13T02:51:55;5.82;;;3.63;;
63444;SDS011;49573;47.682;9.170;2023-07-13T02:54:42;5.68;;;4.22;;
63444;SDS011;49573;47.682;9.170;2023-07-13T02:57:28;5.80;;;4.13;;
63444;SDS011;49573;47.682;9.170;2023-07-13T03:00:14;5.68;;;3.67;;
63444;SDS011;49573;47.682;9.170;2023-07-13T03:03:03;7.03;;;4.05;;
63444;SDS011;49573;47.682;9.170;2023-07-13T03:05:57;7.63;;;4.07;;
63444;SDS011;49573;47.682;9.170;2023-07-13T03:08:45;7.07;;;4.28;;
63444;SDS011;49573;47.682;9.170;2023-07-13T03:11:31;6.20;;;4.55;;
63444;SDS011;49573;47.682;9.170;2023-07-13T03:14:17;6.20;;;4.20;;
63444;SDS011;49573;47.682;9.170;2023-07-13T03:17:03;7.10;;;4.00;;
63444;SDS011;49573;47.682;9.170;2023-07-13T03:19:51;6.60;;;4.20;;
63444;SDS011;49573;47.682;9.170;2023-07-13T03:22:37;4.95;;;3.83;;
63444;SDS011;49573;47.682;9.170;2023-07-13T03:25:23;8.02;;;4.53;;
63444;SDS011;49573;47.682;9.170;2023-07-13T03:28:09;7.38;;;4.32;;
63444;SDS011;49573;47.682;9.170;2023-07-13T03:30:59;7.70;;;4.57;;
63444;SDS011;49573;47.682;9.170;2023-07-13T03:33:47;6.40;;;4.32;;
63444;SDS011;49573;47.682;9.170;2023-07-13T03:36:35;6.63;;;3.78;;
63444;SDS011;49573;47.682;9.170;2023-07-13T03:39:21;10.00;;;4.70;;
63444;SDS011;49573;47.682;9.170;2023-07-13T03:42:07;6.22;;;4.15;;
63444;SDS011;49573;47.682;9.170;2023-07-13T03:44:53;7.63;;;4.45;;
63444;SDS011;49573;47.682;9.170;2023-07-13T03:47:39;8.05;;;3.97;;
63444;SDS011;49573;47.682;9.170;2023-07-13T03:50:25;8.00;;;4.20;;
63444;SDS011;49573;47.682;9.170;2023-07-13T03:53:13;7.07;;;4.80;;
63444;SDS011;49573;47.682;9.170;2023-07-13T03:55:59;5.65;;;4.00;;
63444;SDS011;49573;47.682;9.170;2023-07-13T03:58:45;7.28;;;4.22;;
63444;SDS011;49573;47.682;9.170;2023-07-13T04:01:33;6.97;;;4.50;;
63444;SDS011;49573;47.682;9.170;2023-07-13T04:04:19;6.30;;;4.22;;
63444;SDS011;49573;47.682;9.170;2023-07-13T04:07:06;7.63;;;4.30;;
63444;SDS011;49573;47.682;9.170;2023-07-13T04:09:55;6.28;;;4.32;;
63444;SDS011;49573;47.682;9.170;2023-07-13T04:12:41;7.20;;;4.18;;
63444;SDS011;49573;47.682;9.170;2023-07-13T04:15:28;8.95;;;4.45;;
63444;SDS011;49573;47.682;9.170;2023-07-13T04:18:15;7.78;;;4.28;;
63444;SDS011;49573;47.682;9.170;2023-07-13T04:21:01;7.38;;;3.97;;
63444;SDS011;49573;47.682;9.170;2023-07-13T04:23:47;6.55;;;3.90;;
63444;SDS011;49573;47.682;9.170;2023-07-13T04:26:35;7.95;;;4.25;;
63444;SDS011;49573;47.682;9.170;2023-07-13T04:29:23;5.72;;;4.30;;
63444;SDS011;49573;47.682;9.170;2023-07-13T04:32:10;7.00;;;4.22;;
63444;SDS011;49573;47.682;9.170;2023-07-13T04:34:56;7.28;;;4.50;;
63444;SDS011;49573;47.682;9.170;2023-07-13T04:37:44;7.60;;;4.30;;
63444;SDS011;49573;47.682;9.170;2023-07-13T04:40:31;6.43;;;4.20;;
63444;SDS011;49573;47.682;9.170;2023-07-13T04:43:18;8.15;;;4.22;;
63444;SDS011;49573;47.682;9.170;2023-07-13T04:46:05;7.40;;;4.03;;
63444;SDS011;49573;47.682;9.170;2023-07-13T04:48:52;5.88;;;4.43;;
63444;SDS011;49573;47.682;9.170;2023-07-13T04:51:39;6.90;;;3.97;;
63444;SDS011;49573;47.682;9.170;2023-07-13T04:54:25;6.95;;;4.20;;
63444;SDS011;49573;47.682;9.170;2023-07-13T04:57:11;5.97;;;4.70;;
63444;SDS011;49573;47.682;9.170;2023-07-13T04:59:59;7.05;;;4.60;;
63444;SDS011;49573;47.682;9.170;2023-07-13T05:02:46;7.07;;;4.70;;
63444;SDS011;49573;47.682;9.170;2023-07-13T05:05:32;6.15;;;4.07;;
63444;SDS011;49573;47.682;9.170;2023-07-13T05:08:19;6.18;;;4.32;;
63444;SDS011;49573;47.682;9.170;2023-07-13T05:11:05;8.35;;;4.30;;
63444;SDS011;49573;47.682;9.170;2023-07-13T05:16:40;8.90;;;4.32;;
63444;SDS011;49573;47.682;9.170;2023-07-13T05:19:26;5.95;;;4.43;;
63444;SDS011;49573;47.682;9.170;2023-07-13T05:22:12;6.75;;;4.40;;
63444;SDS011;49573;47.682;9.170;2023-07-13T05:24:59;6.50;;;4.88;;
63444;SDS011;49573;47.682;9.170;2023-07-13T05:27:45;6.00;;;4.68;;
63444;SDS011;49573;47.682;9.170;2023-07-13T05:30:32;7.75;;;4.60;;
63444;SDS011;49573;47.682;9.170;2023-07-13T05:33:20;7.53;;;4.07;;
63444;SDS011;49573;47.682;9.170;2023-07-13T05:36:07;8.30;;;4.60;;
63444;SDS011;49573;47.682;9.170;2023-07-13T05:38:53;6.10;;;4.40;;
63444;SDS011;49573;47.682;9.170;2023-07-13T05:41:39;8.38;;;4.47;;
63444;SDS011;49573;47.682;9.170;2023-07-13T05:44:26;6.97;;;4.30;;
63444;SDS011;49573;47.682;9.170;2023-07-13T05:47:12;7.07;;;3.88;;
63444;SDS011;49573;47.682;9.170;2023-07-13T05:50:01;6.95;;;4.28;;
63444;SDS011;49573;47.682;9.170;2023-07-13T05:52:48;8.73;;;4.68;;
63444;SDS011;49573;47.682;9.170;2023-07-13T05:55:34;9.88;;;4.40;;
63444;SDS011;49573;47.682;9.170;2023-07-13T05:58:21;7.18;;;4.28;;
63444;SDS011;49573;47.682;9.170;2023-07-13T06:01:09;6.32;;;4.03;;
63444;SDS011;49573;47.682;9.170;2023-07-13T06:03:56;5.53;;;3.95;;
63444;SDS011;49573;47.682;9.170;2023-07-13T06:06:43;7.25;;;3.80;;
63444;SDS011;49573;47.682;9.170;2023-07-13T06:09:30;6.13;;;4.13;;
63444;SDS011;49573;47.682;9.170;2023-07-13T06:12:16;6.28;;;4.15;;
63444;SDS011;49573;47.682;9.170;2023-07-13T06:15:03;5.47;;;4.00;;
63444;SDS011;49573;47.682;9.170;2023-07-13T06:20:36;5.95;;;4.30;;
63444;SDS011;49573;47.682;9.170;2023-07-13T06:23:24;6.18;;;3.90;;
63444;SDS011;49573;47.682;9.170;2023-07-13T06:26:11;7.35;;;4.28;;
63444;SDS011;49573;47.682;9.170;2023-07-13T06:31:44;6.20;;;3.85;;
63444;SDS011;49573;47.682;9.170;2023-07-13T06:34:30;7.75;;;4.07;;
63444;SDS011;49573;47.682;9.170;2023-07-13T06:37:17;7.80;;;3.80;;
63444;SDS011;49573;47.682;9.170;2023-07-13T06:40:05;7.43;;;3.58;;
63444;SDS011;49573;47.682;9.170;2023-07-13T06:42:52;6.90;;;3.78;;
63444;SDS011;49573;47.682;9.170;2023-07-13T06:45:40;5.50;;;3.50;;
63444;SDS011;49573;47.682;9.170;2023-07-13T06:48:27;6.45;;;4.15;;
63444;SDS011;49573;47.682;9.170;2023-07-13T06:54:00;5.30;;;3.78;;
63444;SDS011;49573;47.682;9.170;2023-07-13T06:56:48;6.20;;;3.33;;
63444;SDS011;49573;47.682;9.170;2023-07-13T06:59:34;4.93;;;3.30;;
63444;SDS011;49573;47.682;9.170;2023-07-13T07:02:20;6.60;;;3.60;;
63444;SDS011;49573;47.682;9.170;2023-07-13T07:05:07;8.18;;;3.35;;
63444;SDS011;49573;47.682;9.170;2023-07-13T07:07:54;9.35;;;3.50;;
63444;SDS011;49573;47.682;9.170;2023-07-13T07:10:41;7.43;;;3.75;;
63444;SDS011;49573;47.682;9.170;2023-07-13T07:13:29;6.05;;;3.03;;
63444;SDS011;49573;47.682;9.170;2023-07-13T07:16:15;4.80;;;3.20;;
63444;SDS011;49573;47.682;9.170;2023-07-13T07:19:02;6.68;;;3.35;;
63444;SDS011;49573;47.682;9.170;2023-07-13T07:21:48;6.75;;;3.20;;
63444;SDS011;49573;47.682;9.170;2023-07-13T07:24:35;10.20;;;3.40;;
63444;SDS011;49573;47.682;9.170;2023-07-13T07:27:21;6.07;;;3.47;;
63444;SDS011;49573;47.682;9.170;2023-07-13T07:30:10;5.88;;;3.40;;
63444;SDS011;49573;47.682;9.170;2023-07-13T07:32:56;7.45;;;3.88;;
63444;SDS011;49573;47.682;9.170;2023-07-13T07:35:43;7.38;;;3.30;;
63444;SDS011;49573;47.682;9.170;2023-07-13T07:38:29;6.88;;;3.47;;
63444;SDS011;49573;47.682;9.170;2023-07-13T07:41:15;6.03;;;2.92;;
63444;SDS011;49573;47.682;9.170;2023-07-13T07:44:02;5.80;;;2.90;;
63444;SDS011;49573;47.682;9.170;2023-07-13T07:46:50;4.03;;;2.42;;
63444;SDS011;49573;47.682;9.170;2023-07-13T07:49:37;4.55;;;2.78;;
63444;SDS011;49573;47.682;9.170;2023-07-13T07:52:24;8.15;;;3.30;;
63444;SDS011;49573;47.682;9.170;2023-07-13T07:55:10;5.32;;;2.78;;
63444;SDS011;49573;47.682;9.170;2023-07-13T07:57:56;4.45;;;2.78;;
63444;SDS011;49573;47.682;9.170;2023-07-13T08:00:43;5.38;;;2.95;;
63444;SDS011;49573;47.682;9.170;2023-07-13T08:03:30;5.07;;;3.15;;
63444;SDS011;49573;47.682;9.170;2023-07-13T08:06:17;5.85;;;3.17;;
63444;SDS011;49573;47.682;9.170;2023-07-13T08:09:05;6.68;;;3.10;;
63444;SDS011;49573;47.682;9.170;2023-07-13T08:11:51;5.32;;;3.22;;
63444;SDS011;49573;47.682;9.170;2023-07-13T08:14:40;6.28;;;3.05;;
63444;SDS011;49573;47.682;9.170;2023-07-13T08:17:26;5.90;;;3.05;;
63444;SDS011;49573;47.682;9.170;2023-07-13T08:20:14;5.90;;;3.30;;
63444;SDS011;49573;47.682;9.170;2023-07-13T08:23:00;5.65;;;3.08;;
63444;SDS011;49573;47.682;9.170;2023-07-13T08:25:50;7.55;;;3.30;;
63444;SDS011;49573;47.682;9.170;2023-07-13T08:28:37;9.00;;;3.13;;
63444;SDS011;49573;47.682;9.170;2023-07-13T08:31:23;5.28;;;3.33;;
63444;SDS011;49573;47.682;9.170;2023-07-13T08:34:10;6.72;;;3.60;;
63444;SDS011;49573;47.682;9.170;2023-07-13T08:36:57;9.85;;;3.92;;
63444;SDS011;49573;47.682;9.170;2023-07-13T08:39:44;8.60;;;3.88;;
63444;SDS011;49573;47.682;9.170;2023-07-13T08:42:32;6.03;;;3.35;;
63444;SDS011;49573;47.682;9.170;2023-07-13T08:45:19;5.93;;;3.33;;
63444;SDS011;49573;47.682;9.170;2023-07-13T08:48:08;6.90;;;3.50;;
63444;SDS011;49573;47.682;9.170;2023-07-13T08:50:57;6.30;;;3.05;;
63444;SDS011;49573;47.682;9.170;2023-07-13T08:53:46;5.40;;;3.30;;
63444;SDS011;49573;47.682;9.170;2023-07-13T08:56:33;5.65;;;3.28;;
63444;SDS011;49573;47.682;9.170;2023-07-13T08:59:20;6.57;;;3.10;;
63444;SDS011;49573;47.682;9.170;2023-07-13T09:02:14;6.53;;;3.45;;
63444;SDS011;49573;47.682;9.170;2023-07-13T09:05:03;4.85;;;2.30;;
63444;SDS011;49573;47.682;9.170;2023-07-13T09:07:56;3.60;;;2.28;;
63444;SDS011;49573;47.682;9.170;2023-07-13T09:10:45;6.65;;;2.80;;
63444;SDS011;49573;47.682;9.170;2023-07-13T09:13:33;5.75;;;2.72;;
63444;SDS011;49573;47.682;9.170;2023-07-13T09:16:23;5.65;;;2.63;;
63444;SDS011;49573;47.682;9.170;2023-07-13T09:19:11;5.70;;;2.45;;
63444;SDS011;49573;47.682;9.170;2023-07-13T09:22:00;6.47;;;2.70;;
63444;SDS011;49573;47.682;9.170;2023-07-13T09:24:50;6.25;;;2.45;;
63444;SDS011;49573;47.682;9.170;2023-07-13T09:27:40;7.10;;;2.67;;
63444;SDS011;49573;47.682;9.170;2023-07-13T09:30:31;6.60;;;2.50;;
63444;SDS011;49573;47.682;9.170;2023-07-13T09:33:19;5.10;;;2.65;;
63444;SDS011;49573;47.682;9.170;2023-07-13T09:36:14;5.53;;;2.78;;
63444;SDS011;49573;47.682;9.170;2023-07-13T09:39:11;7.72;;;3.05;;
63444;SDS011;49573;47.682;9.170;2023-07-13T09:42:00;3.92;;;2.85;;
63444;SDS011;49573;47.682;9.170;2023-07-13T09:44:53;8.80;;;2.67;;
63444;SDS011;49573;47.682;9.170;2023-07-13T09:47:40;7.63;;;2.50;;
63444;SDS011;49573;47.682;9.170;2023-07-13T09:50:26;6.30;;;2.33;;
63444;SDS011;49573;47.682;9.170;2023-07-13T09:53:15;4.00;;;2.28;;
63444;SDS011;49573;47.682;9.170;2023-07-13T09:56:01;4.50;;;1.90;;
63444;SDS011;49573;47.682;9.170;2023-07-13T09:58:48;4.65;;;2.30;;
63444;SDS011;49573;47.682;9.170;2023-07-13T10:01:37;4.47;;;2.08;;
63444;SDS011;49573;47.682;9.170;2023-07-13T10:04:28;3.60;;;2.30;;
63444;SDS011;49573;47.682;9.170;2023-07-13T10:07:14;6.32;;;2.42;;
63444;SDS011;49573;47.682;9.170;2023-07-13T10:10:01;6.10;;;2.80;;
63444;SDS011;49573;47.682;9.170;2023-07-13T10:12:48;4.30;;;2.50;;
63444;SDS011;49573;47.682;9.170;2023-07-13T10:15:35;8.63;;;2.58;;
63444;SDS011;49573;47.682;9.170;2023-07-13T10:18:22;6.10;;;2.42;;
63444;SDS011;49573;47.682;9.170;2023-07-13T10:21:13;5.05;;;2.63;;
63444;SDS011;49573;47.682;9.170;2023-07-13T10:24:02;6.60;;;2.60;;
63444;SDS011;49573;47.682;9.170;2023-07-13T10:26:52;4.53;;;2.30;;
63444;SDS011;49573;47.682;9.170;2023-07-13T10:29:43;6.07;;;2.50;;
63444;SDS011;49573;47.682;9.170;2023-07-13T10:32:31;4.68;;;2.55;;
63444;SDS011;49573;47.682;9.170;2023-07-13T10:35:20;6.25;;;3.33;;
63444;SDS011;49573;47.682;9.170;2023-07-13T10:38:10;4.22;;;2.38;;
63444;SDS011;49573;47.682;9.170;2023-07-13T10:40:59;4.35;;;2.45;;
63444;SDS011;49573;47.682;9.170;2023-07-13T10:43:47;5.65;;;2.42;;
63444;SDS011;49573;47.682;9.170;2023-07-13T10:46:36;4.80;;;2.47;;
63444;SDS011;49573;47.682;9.170;2023-07-13T10:49:22;4.78;;;2.38;;
63444;SDS011;49573;47.682;9.170;2023-07-13T10:58:14;4.88;;;2.20;;
63444;SDS011;49573;47.682;9.170;2023-07-13T11:01:03;5.25;;;2.30;;
63444;SDS011;49573;47.682;9.170;2023-07-13T11:03:51;3.60;;;2.35;;
63444;SDS011;49573;47.682;9.170;2023-07-13T11:06:42;4.32;;;2.50;;
63444;SDS011;49573;47.682;9.170;2023-07-13T11:09:34;4.53;;;2.92;;
63444;SDS011;49573;47.682;9.170;2023-07-13T11:12:29;6.25;;;2.65;;
63444;SDS011;49573;47.682;9.170;2023-07-13T11:15:44;5.88;;;2.40;;
63444;SDS011;49573;47.682;9.170;2023-07-13T11:18:33;5.05;;;2.60;;
63444;SDS011;49573;47.682;9.170;2023-07-13T11:21:20;3.92;;;2.45;;
63444;SDS011;49573;47.682;9.170;2023-07-13T11:24:13;5.72;;;2.90;;
63444;SDS011;49573;47.682;9.170;2023-07-13T11:27:00;5.05;;;2.55;;
63444;SDS011;49573;47.682;9.170;2023-07-13T11:30:08;5.68;;;2.50;;
63444;SDS011;49573;47.682;9.170;2023-07-13T11:33:04;4.80;;;2.97;;
63444;SDS011;49573;47.682;9.170;2023-07-13T11:35:57;6.22;;;2.58;;
63444;SDS011;49573;47.682;9.170;2023-07-13T11:38:45;6.05;;;3.00;;
63444;SDS011;49573;47.682;9.170;2023-07-13T11:41:43;3.92;;;2.47;;
63444;SDS011;49573;47.682;9.170;2023-07-13T11:44:30;3.08;;;2.33;;
63444;SDS011;49573;47.682;9.170;2023-07-13T11:47:18;5.90;;;2.45;;
63444;SDS011;49573;47.682;9.170;2023-07-13T11:50:17;3.90;;;2.40;;
63444;SDS011;49573;47.682;9.170;2023-07-13T11:53:04;4.78;;;2.35;;
63444;SDS011;49573;47.682;9.170;2023-07-13T11:55:51;4.47;;;2.40;;
63444;SDS011;49573;47.682;9.170;2023-07-13T11:58:37;5.55;;;2.85;;
63444;SDS011;49573;47.682;9.170;2023-07-13T12:01:24;4.70;;;2.60;;
63444;SDS011;49573;47.682;9.170;2023-07-13T12:04:16;4.68;;;2.90;;
63444;SDS011;49573;47.682;9.170;2023-07-13T12:07:14;5.18;;;2.58;;
63444;SDS011;49573;47.682;9.170;2023-07-13T12:10:01;4.43;;;2.58;;
63444;SDS011;49573;47.682;9.170;2023-07-13T12:12:48;4.47;;;2.90;;
63444;SDS011;49573;47.682;9.170;2023-07-13T12:15:35;6.95;;;3.03;;
63444;SDS011;49573;47.682;9.170;2023-07-13T12:18:23;5.75;;;2.80;;
63444;SDS011;49573;47.682;9.170;2023-07-13T12:21:17;4.05;;;2.45;;
63444;SDS011;49573;47.682;9.170;2023-07-13T12:24:11;7.03;;;2.85;;
63444;SDS011;49573;47.682;9.170;2023-07-13T12:27:00;5.13;;;2.60;;
63444;SDS011;49573;47.682;9.170;2023-07-13T12:29:51;2.90;;;2.20;;
63444;SDS011;49573;47.682;9.170;2023-07-13T12:32:42;6.97;;;2.97;;
63444;SDS011;49573;47.682;9.170;2023-07-13T12:35:40;3.83;;;2.50;;
63444;SDS011;49573;47.682;9.170;2023-07-13T12:38:31;5.15;;;2.22;;
63444;SDS011;49573;47.682;9.170;2023-07-13T12:41:19;4.15;;;2.75;;
63444;SDS011;49573;47.682;9.170;2023-07-13T12:44:08;6.18;;;2.85;;
63444;SDS011;49573;47.682;9.170;2023-07-13T12:46:58;7.15;;;2.72;;
63444;SDS011;49573;47.682;9.170;2023-07-13T12:49:50;3.58;;;2.58;;
63444;SDS011;49573;47.682;9.170;2023-07-13T12:52:39;5.68;;;2.88;;
63444;SDS011;49573;47.682;9.170;2023-07-13T12:55:29;4.00;;;2.97;;
63444;SDS011;49573;47.682;9.170;2023-07-13T12:58:20;6.40;;;3.15;;
63444;SDS011;49573;47.682;9.170;2023-07-13T13:01:11;4.25;;;2.53;;
63444;SDS011;49573;47.682;9.170;2023-07-13T13:04:00;4.40;;;2.65;;
63444;SDS011;49573;47.682;9.170;2023-07-13T13:07:00;5.65;;;2.63;;
63444;SDS011;49573;47.682;9.170;2023-07-13T13:09:48;4.65;;;2.97;;
63444;SDS011;49573;47.682;9.170;2023-07-13T13:12:34;6.80;;;2.92;;
63444;SDS011;49573;47.682;9.170;2023-07-13T13:15:21;4.75;;;2.50;;
63444;SDS011;49573;47.682;9.170;2023-07-13T13:18:14;4.35;;;2.78;;
63444;SDS011;49573;47.682;9.170;2023-07-13T13:21:02;4.93;;;2.55;;
63444;SDS011;49573;47.682;9.170;2023-07-13T13:23:48;5.60;;;2.80;;
63444;SDS011;49573;47.682;9.170;2023-07-13T13:26:36;4.95;;;2.50;;
63444;SDS011;49573;47.682;9.170;2023-07-13T13:29:23;3.50;;;2.30;;
63444;SDS011;49573;47.682;9.170;2023-07-13T13:32:12;4.22;;;2.72;;
63444;SDS011;49573;47.682;9.170;2023-07-13T13:34:59;4.43;;;2.67;;
63444;SDS011;49573;47.682;9.170;2023-07-13T13:37:46;5.78;;;2.67;;
63444;SDS011;49573;47.682;9.170;2023-07-13T13:40:36;4.60;;;2.50;;
63444;SDS011;49573;47.682;9.170;2023-07-13T13:46:13;3.78;;;2.50;;
63444;SDS011;49573;47.682;9.170;2023-07-13T13:49:02;6.35;;;2.38;;
63444;SDS011;49573;47.682;9.170;2023-07-13T13:51:48;3.92;;;2.10;;
63444;SDS011;49573;47.682;9.170;2023-07-13T13:54:35;4.35;;;2.65;;
63444;SDS011;49573;47.682;9.170;2023-07-13T14:00:09;3.92;;;2.58;;
63444;SDS011;49573;47.682;9.170;2023-07-13T14:02:59;5.00;;;2.78;;
63444;SDS011;49573;47.682;9.170;2023-07-13T14:08:33;5.65;;;2.50;;
63444;SDS011;49573;47.682;9.170;2023-07-13T14:11:20;3.63;;;2.55;;
63444;SDS011;49573;47.682;9.170;2023-07-13T14:14:08;4.05;;;2.30;;
63444;SDS011;49573;47.682;9.170;2023-07-13T14:16:57;4.32;;;2.50;;
63444;SDS011;49573;47.682;9.170;2023-07-13T14:22:30;3.43;;;2.60;;
63444;SDS011;49573;47.682;9.170;2023-07-13T14:28:10;4.78;;;2.35;;
63444;SDS011;49573;47.682;9.170;2023-07-13T14:31:01;4.35;;;2.55;;
63444;SDS011;49573;47.682;9.170;2023-07-13T14:36:35;3.63;;;2.38;;
63444;SDS011;49573;47.682;9.170;2023-07-13T14:39:23;3.58;;;2.47;;
63444;SDS011;49573;47.682;9.170;2023-07-13T14:42:09;3.78;;;2.58;;
63444;SDS011;49573;47.682;9.170;2023-07-13T14:44:57;3.92;;;2.38;;
63444;SDS011;49573;47.682;9.170;2023-07-13T14:47:44;4.03;;;2.33;;
63444;SDS011;49573;47.682;9.170;2023-07-13T14:50:31;4.65;;;2.35;;
63444;SDS011;49573;47.682;9.170;2023-07-13T14:53:18;4.20;;;2.53;;
63444;SDS011;49573;47.682;9.170;2023-07-13T14:58:50;4.05;;;2.55;;
63444;SDS011;49573;47.682;9.170;2023-07-13T15:01:39;4.57;;;2.65;;
63444;SDS011;49573;47.682;9.170;2023-07-13T15:04:26;3.92;;;2.63;;
63444;SDS011;49573;47.682;9.170;2023-07-13T15:10:01;3.80;;;2.55;;
63444;SDS011;49573;47.682;9.170;2023-07-13T15:12:50;4.15;;;2.40;;
63444;SDS011;49573;47.682;9.170;2023-07-13T15:15:37;7.22;;;2.88;;
63444;SDS011;49573;47.682;9.170;2023-07-13T15:18:25;4.22;;;2.40;;
63444;SDS011;49573;47.682;9.170;2023-07-13T15:21:13;4.88;;;2.55;;
63444;SDS011;49573;47.682;9.170;2023-07-13T15:24:00;5.15;;;2.45;;
63444;SDS011;49573;47.682;9.170;2023-07-13T15:26:48;3.78;;;2.60;;
63444;SDS011;49573;47.682;9.170;2023-07-13T15:29:34;3.50;;;2.40;;
63444;SDS011;49573;47.682;9.170;2023-07-13T15:35:12;3.38;;;2.58;;
63444;SDS011;49573;47.682;9.170;2023-07-13T15:37:59;3.80;;;2.55;;
63444;SDS011;49573;47.682;9.170;2023-07-13T15:40:48;4.90;;;2.80;;
63444;SDS011;49573;47.682;9.170;2023-07-13T15:43:35;4.97;;;2.70;;
63444;SDS011;49573;47.682;9.170;2023-07-13T15:46:22;4.05;;;2.40;;
63444;SDS011;49573;47.682;9.170;2023-07-13T15:49:09;5.55;;;2.80;;
63444;SDS011;49573;47.682;9.170;2023-07-13T15:51:57;5.00;;;2.75;;
63444;SDS011;49573;47.682;9.170;2023-07-13T15:54:44;4.05;;;2.63;;
63444;SDS011;49573;47.682;9.170;2023-07-13T15:57:30;3.35;;;2.67;;
63444;SDS011;49573;47.682;9.170;2023-07-13T16:03:03;6.40;;;2.95;;
63444;SDS011;49573;47.682;9.170;2023-07-13T16:05:50;3.72;;;2.60;;
63444;SDS011;49573;47.682;9.170;2023-07-13T16:08:38;4.50;;;2.60;;
63444;SDS011;49573;47.682;9.170;2023-07-13T16:11:27;6.63;;;2.75;;
63444;SDS011;49573;47.682;9.170;2023-07-13T16:14:14;4.38;;;2.53;;
63444;SDS011;49573;47.682;9.170;2023-07-13T16:17:01;3.30;;;2.45;;
63444;SDS011;49573;47.682;9.170;2023-07-13T16:19:48;4.45;;;2.42;;
63444;SDS011;49573;47.682;9.170;2023-07-13T16:25:23;6.03;;;2.45;;
63444;SDS011;49573;47.682;9.170;2023-07-13T16:28:10;5.03;;;2.47;;
63444;SDS011;49573;47.682;9.170;2023-07-13T16:30:57;4.40;;;2.47;;
63444;SDS011;49573;47.682;9.170;2023-07-13T16:33:43;3.75;;;2.63;;
63444;SDS011;49573;47.682;9.170;2023-07-13T16:39:16;3.00;;;2.05;;
63444;SDS011;49573;47.682;9.170;2023-07-13T16:42:04;3.72;;;2.08;;
63444;SDS011;49573;47.682;9.170;2023-07-13T16:44:51;4.05;;;2.20;;
63444;SDS011;49573;47.682;9.170;2023-07-13T16:47:38;8.00;;;2.40;;
63444;SDS011;49573;47.682;9.170;2023-07-13T16:50:28;3.33;;;2.22;;
63444;SDS011;49573;47.682;9.170;2023-07-13T16:53:17;2.90;;;1.92;;
63444;SDS011;49573;47.682;9.170;2023-07-13T16:56:05;4.70;;;2.20;;
63444;SDS011;49573;47.682;9.170;2023-07-13T16:58:58;4.22;;;2.05;;
63444;SDS011;49573;47.682;9.170;2023-07-13T17:01:45;2.20;;;1.85;;
63444;SDS011;49573;47.682;9.170;2023-07-13T17:04:31;5.38;;;2.00;;
63444;SDS011;49573;47.682;9.170;2023-07-13T17:10:15;3.78;;;1.90;;
63444;SDS011;49573;47.682;9.170;2023-07-13T17:13:02;4.28;;;1.83;;
63444;SDS011;49573;47.682;9.170;2023-07-13T17:15:52;3.70;;;2.00;;
63444;SDS011;49573;47.682;9.170;2023-07-13T17:18:41;2.30;;;1.60;;
63444;SDS011;49573;47.682;9.170;2023-07-13T17:21:28;4.70;;;1.88;;
63444;SDS011;49573;47.682;9.170;2023-07-13T17:24:16;4.20;;;2.05;;
63444;SDS011;49573;47.682;9.170;2023-07-13T17:27:04;3.67;;;2.10;;
63444;SDS011;49573;47.682;9.170;2023-07-13T17:29:51;3.00;;;1.92;;
63444;SDS011;49573;47.682;9.170;2023-07-13T17:32:41;4.15;;;1.90;;
63444;SDS011;49573;47.682;9.170;2023-07-13T17:35:28;5.07;;;2.00;;
63444;SDS011;49573;47.682;9.170;2023-07-13T17:38:15;3.42;;;1.90;;
63444;SDS011;49573;47.682;9.170;2023-07-13T17:43:50;4.50;;;2.10;;
63444;SDS011;49573;47.682;9.170;2023-07-13T17:46:36;4.05;;;1.98;;
63444;SDS011;49573;47.682;9.170;2023-07-13T17:49:24;3.90;;;2.20;;
63444;SDS011;49573;47.682;9.170;2023-07-13T17:52:17;4.40;;;2.20;;
63444;SDS011;49573;47.682;9.170;2023-07-13T17:55:05;2.88;;;2.03;;
63444;SDS011;49573;47.682;9.170;2023-07-13T17:57:58;3.75;;;1.75;;